createdAt,value
2019-05-26T00:00:32.195Z,12.50
2019-05-26T00:02:59.575Z,12.29
2019-05-26T00:05:26.950Z,12.33
2019-05-26T00:07:54.312Z,12.23
2019-05-26T00:10:21.600Z,12.43
2019-05-26T00:12:48.950Z,12.48
2019-05-26T00:15:18.487Z,12.36
2019-05-26T00:17:45.871Z,12.14
2019-05-26T00:20:13.701Z,11.96
2019-05-26T00:22:41.033Z,12.09
2019-05-26T00:25:08.677Z,12.16
2019-05-26T00:27:36.096Z,12.58
2019-05-26T00:30:03.819Z,12.35
2019-05-26T00:32:31.144Z,12.33
2019-05-26T00:34:58.490Z,12.62
2019-05-26T00:37:25.939Z,12.67
2019-05-26T00:39:53.280Z,12.42
2019-05-26T00:42:20.891Z,12.62
2019-05-26T00:44:48.235Z,12.32
2019-05-26T00:47:15.594Z,12.05
2019-05-26T00:49:43.091Z,11.92
2019-05-26T00:52:10.430Z,12.11
2019-05-26T00:54:37.749Z,12.38
2019-05-26T00:57:05.109Z,12.31
2019-05-26T00:59:32.455Z,12.36
2019-05-26T01:01:59.855Z,12.55
2019-05-26T01:04:27.425Z,11.94
2019-05-26T01:06:54.826Z,12.02
2019-05-26T01:09:22.099Z,12.49
2019-05-26T01:11:49.452Z,12.10
2019-05-26T01:14:16.810Z,11.99
2019-05-26T01:16:44.195Z,12.03
2019-05-26T01:19:11.547Z,11.88
2019-05-26T01:21:38.994Z,12.00
2019-05-26T01:24:06.294Z,11.83
2019-05-26T01:26:33.674Z,11.93
2019-05-26T01:29:00.989Z,12.34
2019-05-26T01:31:28.349Z,12.02
2019-05-26T01:33:55.850Z,12.24
2019-05-26T01:36:23.212Z,11.81
2019-05-26T01:38:50.541Z,11.80
2019-05-26T01:41:17.860Z,11.99
2019-05-26T01:43:45.214Z,12.16
2019-05-26T01:46:12.551Z,11.74
2019-05-26T01:48:39.950Z,11.79
2019-05-26T01:51:07.271Z,12.30
2019-05-26T01:53:34.611Z,12.25
2019-05-26T01:56:02.005Z,11.89
2019-05-26T01:58:29.330Z,12.05
2019-05-26T02:00:56.650Z,11.88
2019-05-26T02:03:24.013Z,12.22
2019-05-26T02:05:51.370Z,12.25
2019-05-26T02:08:18.712Z,12.17
2019-05-26T02:10:46.031Z,12.09
2019-05-26T02:13:13.393Z,12.24
2019-05-26T02:15:40.686Z,12.21
2019-05-26T02:18:09.349Z,11.79
2019-05-26T02:20:36.767Z,12.14
2019-05-26T02:23:04.569Z,11.81
2019-05-26T02:25:31.871Z,11.93
2019-05-26T02:27:59.238Z,12.20
2019-05-26T02:30:26.684Z,12.09
2019-05-26T02:32:54.010Z,12.00
2019-05-26T02:35:21.463Z,11.86
2019-05-26T02:37:48.804Z,12.09
2019-05-26T02:40:17.969Z,11.65
2019-05-26T02:42:45.335Z,12.15
2019-05-26T02:45:16.318Z,11.83
2019-05-26T02:47:44.152Z,12.12
2019-05-26T02:50:12.194Z,11.96
2019-05-26T02:52:39.534Z,11.90
2019-05-26T02:55:07.200Z,12.05
2019-05-26T02:57:34.580Z,11.85
2019-05-26T03:00:01.907Z,12.02
2019-05-26T03:02:29.273Z,11.63
2019-05-26T03:04:56.611Z,11.66
2019-05-26T03:07:25.891Z,11.71
2019-05-26T03:09:55.050Z,11.91
2019-05-26T03:12:24.351Z,11.98
2019-05-26T03:14:52.255Z,11.97
2019-05-26T03:17:20.794Z,11.93
2019-05-26T03:19:48.680Z,11.94
2019-05-26T03:22:19.329Z,12.13
2019-05-26T03:24:49.933Z,12.08
2019-05-26T03:27:17.374Z,12.09
2019-05-26T03:29:44.671Z,11.95
2019-05-26T03:32:12.040Z,11.94
2019-05-26T03:34:39.396Z,12.05
2019-05-26T03:37:06.871Z,12.18
2019-05-26T03:39:44.692Z,11.94
2019-05-26T03:42:03.605Z,12.03
2019-05-26T03:44:30.976Z,11.92
2019-05-26T03:46:58.279Z,11.94
2019-05-26T03:49:25.674Z,11.74
2019-05-26T03:51:53.010Z,11.62
2019-05-26T03:54:20.400Z,11.72
2019-05-26T03:56:47.736Z,11.77
2019-05-26T03:59:15.051Z,11.57
2019-05-26T04:01:42.391Z,11.67
2019-05-26T04:04:09.711Z,11.64
2019-05-26T04:06:37.105Z,11.64
2019-05-26T04:09:06.491Z,11.87
2019-05-26T04:11:33.870Z,11.97
2019-05-26T04:14:01.144Z,11.56
2019-05-26T04:16:28.503Z,12.05
2019-05-26T04:18:55.830Z,11.90
2019-05-26T04:21:23.170Z,11.82
2019-05-26T04:23:50.549Z,11.98
2019-05-26T04:26:18.010Z,11.82
2019-05-26T04:28:45.416Z,11.87
2019-05-26T04:31:12.732Z,11.84
2019-05-26T04:33:40.077Z,12.12
2019-05-26T04:36:07.409Z,12.03
2019-05-26T04:38:34.739Z,11.90
2019-05-26T04:41:02.465Z,11.83
2019-05-26T04:43:29.782Z,11.99
2019-05-26T04:45:57.123Z,12.02
2019-05-26T04:48:24.631Z,12.06
2019-05-26T04:50:51.953Z,12.06
2019-05-26T04:53:19.282Z,12.23
2019-05-26T04:55:46.611Z,11.90
2019-05-26T04:58:13.912Z,12.13
2019-05-26T05:00:41.255Z,12.23
2019-05-26T05:03:08.618Z,11.98
2019-05-26T05:05:35.951Z,11.81
2019-05-26T05:08:03.300Z,11.67
2019-05-26T05:10:41.852Z,12.05
2019-05-26T05:12:59.899Z,12.18
2019-05-26T05:15:27.238Z,12.20
2019-05-26T05:17:55.760Z,12.05
2019-05-26T05:20:23.080Z,12.11
2019-05-26T05:22:50.400Z,11.96
2019-05-26T05:25:17.769Z,12.11
2019-05-26T05:27:46.028Z,12.05
2019-05-26T05:30:13.523Z,12.15
2019-05-26T05:32:41.250Z,12.08
2019-05-26T05:35:08.924Z,12.01
2019-05-26T05:37:36.267Z,12.33
2019-05-26T05:40:04.505Z,12.21
2019-05-26T05:42:31.930Z,12.13
2019-05-26T05:44:59.261Z,12.36
2019-05-26T05:47:28.412Z,12.46
2019-05-26T05:49:56.975Z,12.33
2019-05-26T05:52:25.371Z,12.34
2019-05-26T05:54:52.751Z,12.38
2019-05-26T05:57:20.671Z,12.38
2019-05-26T05:59:48.412Z,12.57
2019-05-26T06:02:15.777Z,12.54
2019-05-26T06:04:43.110Z,12.50
2019-05-26T06:07:10.444Z,12.74
2019-05-26T06:09:37.817Z,12.38
2019-05-26T06:12:05.170Z,12.52
2019-05-26T06:14:32.598Z,12.49
2019-05-26T06:17:00.111Z,12.69
2019-05-26T06:19:27.513Z,12.64
2019-05-26T06:21:54.982Z,12.72
2019-05-26T06:24:22.320Z,12.75
2019-05-26T06:26:49.750Z,12.86
2019-05-26T06:29:17.055Z,12.77
2019-05-26T06:31:44.766Z,12.47
2019-05-26T06:34:12.216Z,12.73
2019-05-26T06:36:39.628Z,12.81
2019-05-26T06:39:07.761Z,12.79
2019-05-26T06:41:35.139Z,12.59
2019-05-26T06:44:02.512Z,12.80
2019-05-26T06:46:30.012Z,12.93
2019-05-26T06:48:57.354Z,12.94
2019-05-26T06:51:25.180Z,13.01
2019-05-26T06:53:52.504Z,13.26
2019-05-26T06:56:19.932Z,13.04
2019-05-26T06:58:47.350Z,13.28
2019-05-26T07:01:14.673Z,13.24
2019-05-26T07:03:42.049Z,13.33
2019-05-26T07:06:09.409Z,13.53
2019-05-26T07:08:36.850Z,13.73
2019-05-26T07:11:04.256Z,13.70
2019-05-26T07:13:31.666Z,13.44
2019-05-26T07:15:59.061Z,13.57
2019-05-26T07:18:26.436Z,13.51
2019-05-26T07:20:53.877Z,14.60
2019-05-26T07:23:21.234Z,14.54
2019-05-26T07:25:48.674Z,14.24
2019-05-26T07:28:16.057Z,14.29
2019-05-26T07:30:43.349Z,14.17
2019-05-26T07:33:10.726Z,14.49
2019-05-26T07:35:38.080Z,14.24
2019-05-26T07:38:05.413Z,14.69
2019-05-26T07:40:32.732Z,14.34
2019-05-26T07:43:00.075Z,14.62
2019-05-26T07:45:28.664Z,14.63
2019-05-26T07:47:56.012Z,14.96
2019-05-26T07:50:23.432Z,14.65
2019-05-26T07:52:50.770Z,15.05
2019-05-26T07:55:18.187Z,14.86
2019-05-26T07:57:46.634Z,14.95
2019-05-26T08:00:14.030Z,15.01
2019-05-26T08:02:41.369Z,15.02
2019-05-26T08:05:09.739Z,14.91
2019-05-26T08:07:37.110Z,15.29
2019-05-26T08:10:04.992Z,15.16
2019-05-26T08:12:33.567Z,15.16
2019-05-26T08:15:00.901Z,14.77
2019-05-26T08:17:28.282Z,15.54
2019-05-26T08:19:55.632Z,15.34
2019-05-26T08:22:23.029Z,15.00
2019-05-26T08:24:50.432Z,15.32
2019-05-26T08:27:17.900Z,15.46
2019-05-26T08:29:45.259Z,15.39
2019-05-26T08:32:15.180Z,15.24
2019-05-26T08:34:42.631Z,15.29
2019-05-26T08:37:10.077Z,15.08
2019-05-26T08:39:37.491Z,15.13
2019-05-26T08:42:04.861Z,15.31
2019-05-26T08:44:32.199Z,15.22
2019-05-26T08:46:59.537Z,15.32
2019-05-26T08:49:26.889Z,15.38
2019-05-26T08:51:54.244Z,15.22
2019-05-26T08:54:21.693Z,15.29
2019-05-26T08:56:49.005Z,15.29
2019-05-26T08:59:16.426Z,15.35
2019-05-26T09:01:43.789Z,15.55
2019-05-26T09:04:11.096Z,15.59
2019-05-26T09:06:38.434Z,15.41
2019-05-26T09:09:06.520Z,15.67
2019-05-26T09:11:33.833Z,15.91
2019-05-26T09:14:01.279Z,16.01
2019-05-26T09:16:28.641Z,15.89
2019-05-26T09:18:55.904Z,15.78
2019-05-26T09:21:23.260Z,15.77
2019-05-26T09:23:50.649Z,15.92
2019-05-26T09:26:18.088Z,15.92
2019-05-26T09:28:45.344Z,16.11
2019-05-26T09:31:12.665Z,15.80
2019-05-26T09:33:40.036Z,15.92
2019-05-26T09:36:07.318Z,16.11
2019-05-26T09:38:35.005Z,16.10
2019-05-26T09:41:02.311Z,16.31
2019-05-26T09:43:29.657Z,16.82
2019-05-26T09:45:57.001Z,16.73
2019-05-26T09:48:24.348Z,16.89
2019-05-26T09:50:51.717Z,16.61
2019-05-26T09:53:19.106Z,16.80
2019-05-26T09:55:46.472Z,16.65
2019-05-26T09:58:13.787Z,16.55
2019-05-26T10:00:43.084Z,16.67
2019-05-26T10:03:10.382Z,16.51
2019-05-26T10:05:37.743Z,16.90
2019-05-26T10:08:05.232Z,16.64
2019-05-26T10:10:32.690Z,16.71
2019-05-26T10:13:00.041Z,16.73
2019-05-26T10:15:27.438Z,16.83
2019-05-26T10:17:54.907Z,16.75
2019-05-26T10:20:23.626Z,16.87
2019-05-26T10:22:50.966Z,16.88
2019-05-26T10:25:18.302Z,16.87
2019-05-26T10:27:45.672Z,17.31
2019-05-26T10:30:13.529Z,17.50
2019-05-26T10:32:41.027Z,17.69
2019-05-26T10:35:08.574Z,17.43
2019-05-26T10:37:35.939Z,17.99
2019-05-26T10:40:03.830Z,17.72
2019-05-26T10:42:31.257Z,18.13
2019-05-26T10:44:58.630Z,17.82
2019-05-26T10:47:25.960Z,18.30
2019-05-26T10:49:53.244Z,17.94
2019-05-26T10:52:20.589Z,18.17
2019-05-26T10:54:47.918Z,18.12
2019-05-26T10:57:15.330Z,17.35
2019-05-26T10:59:42.616Z,16.73
2019-05-26T11:02:09.983Z,17.53
2019-05-26T11:04:37.298Z,18.43
2019-05-26T11:07:04.754Z,18.36
2019-05-26T11:09:32.185Z,17.73
2019-05-26T11:12:00.518Z,17.87
2019-05-26T11:14:27.961Z,17.74
2019-05-26T11:16:55.408Z,17.50
2019-05-26T11:19:22.778Z,17.61
2019-05-26T11:21:50.184Z,18.01
2019-05-26T11:24:18.418Z,17.54
2019-05-26T11:26:45.854Z,17.22
2019-05-26T11:29:13.224Z,17.43
2019-05-26T11:31:40.515Z,17.34
2019-05-26T11:34:07.911Z,17.26
2019-05-26T11:36:35.282Z,17.43
2019-05-26T11:39:04.777Z,17.38
2019-05-26T11:41:32.221Z,17.44
2019-05-26T11:43:59.586Z,17.37
2019-05-26T11:46:26.939Z,17.90
2019-05-26T11:48:54.285Z,19.32
2019-05-26T11:51:21.657Z,18.41
2019-05-26T11:53:49.049Z,18.39
2019-05-26T11:56:16.450Z,18.01
2019-05-26T11:58:43.749Z,18.12
2019-05-26T12:01:11.112Z,18.23
2019-05-26T12:03:38.505Z,17.96
2019-05-26T12:06:05.834Z,18.08
2019-05-26T12:08:33.181Z,18.20
2019-05-26T12:11:00.541Z,18.23
2019-05-26T12:13:27.880Z,18.07
2019-05-26T12:15:55.251Z,18.21
2019-05-26T12:18:22.596Z,18.36
2019-05-26T12:20:50.034Z,18.39
2019-05-26T12:23:17.426Z,18.43
2019-05-26T12:25:44.776Z,19.63
2019-05-26T12:28:12.179Z,20.50
2019-05-26T12:30:39.470Z,19.49
2019-05-26T12:33:09.620Z,20.15
2019-05-26T12:35:44.963Z,19.66
2019-05-26T12:38:12.650Z,20.99
2019-05-26T12:40:40.164Z,21.39
2019-05-26T12:43:07.551Z,20.63
2019-05-26T12:45:34.903Z,20.67
2019-05-26T12:48:02.321Z,21.12
2019-05-26T12:50:29.756Z,21.10
2019-05-26T12:52:57.110Z,19.96
2019-05-26T12:55:24.431Z,20.83
2019-05-26T12:57:51.818Z,20.15
2019-05-26T13:00:19.310Z,20.16
2019-05-26T13:02:46.668Z,20.11
2019-05-26T13:05:14.196Z,20.27
2019-05-26T13:07:41.920Z,21.25
2019-05-26T13:10:09.501Z,22.17
2019-05-26T13:12:36.841Z,21.97
2019-05-26T13:15:06.250Z,21.91
2019-05-26T13:17:34.133Z,20.86
2019-05-26T13:20:01.511Z,20.52
2019-05-26T13:22:28.951Z,20.58
2019-05-26T13:24:56.317Z,20.55
2019-05-26T13:27:23.710Z,20.90
2019-05-26T13:29:51.123Z,20.78
2019-05-26T13:32:18.451Z,20.57
2019-05-26T13:34:45.841Z,20.32
2019-05-26T13:37:13.258Z,20.73
2019-05-26T13:39:40.619Z,20.18
2019-05-26T13:42:08.032Z,20.29
2019-05-26T13:44:35.424Z,20.10
2019-05-26T13:47:02.923Z,20.06
2019-05-26T13:49:30.431Z,20.27
2019-05-26T13:51:57.818Z,20.05
2019-05-26T13:54:25.188Z,20.10
2019-05-26T13:56:52.678Z,20.19
2019-05-26T13:59:20.158Z,20.19
2019-05-26T14:01:47.558Z,20.10
2019-05-26T14:04:16.098Z,19.91
2019-05-26T14:06:43.488Z,20.14
2019-05-26T14:09:10.954Z,19.91
2019-05-26T14:11:38.414Z,20.22
2019-05-26T14:14:05.851Z,20.25
2019-05-26T14:16:33.906Z,20.35
2019-05-26T14:19:02.045Z,20.04
2019-05-26T14:21:29.435Z,20.37
2019-05-26T14:23:57.277Z,20.14
2019-05-26T14:26:24.656Z,20.32
2019-05-26T14:28:52.015Z,20.21
2019-05-26T14:31:19.481Z,20.27
2019-05-26T14:33:46.899Z,20.19
2019-05-26T14:36:14.323Z,20.27
2019-05-26T14:38:43.538Z,20.06
2019-05-26T14:41:13.361Z,20.52
2019-05-26T14:43:40.931Z,20.39
2019-05-26T14:46:08.359Z,20.59
2019-05-26T14:48:35.772Z,21.41
2019-05-26T14:51:03.829Z,21.12
2019-05-26T14:53:33.459Z,22.13
2019-05-26T14:56:01.306Z,21.20
2019-05-26T14:58:28.698Z,21.24
2019-05-26T15:00:56.073Z,21.01
2019-05-26T15:03:23.566Z,21.67
2019-05-26T15:06:05.133Z,21.29
2019-05-26T15:08:21.136Z,21.30
2019-05-26T15:10:48.596Z,21.28
2019-05-26T15:13:16.012Z,21.31
2019-05-26T15:15:45.736Z,20.94
2019-05-26T15:18:14.364Z,21.34
2019-05-26T15:20:41.723Z,21.31
2019-05-26T15:23:09.135Z,20.95
2019-05-26T15:25:36.579Z,20.54
2019-05-26T15:28:03.967Z,20.69
2019-05-26T15:30:31.454Z,20.68
2019-05-26T15:32:58.872Z,23.02
2019-05-26T15:35:26.266Z,22.77
2019-05-26T15:37:56.478Z,23.54
2019-05-26T15:40:23.880Z,23.14
2019-05-26T15:42:51.285Z,22.89
2019-05-26T15:45:20.216Z,24.00
2019-05-26T15:47:47.604Z,24.67
2019-05-26T15:50:14.956Z,24.32
2019-05-26T15:52:43.108Z,24.50
2019-05-26T15:55:10.847Z,23.48
2019-05-26T15:57:38.210Z,23.67
2019-05-26T16:00:05.793Z,23.22
2019-05-26T16:02:33.289Z,23.91
2019-05-26T16:05:01.927Z,24.06
2019-05-26T16:07:29.670Z,24.40
2019-05-26T16:09:57.088Z,24.66
2019-05-26T16:12:24.486Z,24.54
2019-05-26T16:14:52.953Z,23.50
2019-05-26T16:17:20.721Z,23.75
2019-05-26T16:19:49.190Z,24.28
2019-05-26T16:22:17.109Z,23.31
2019-05-26T16:24:44.563Z,23.88
2019-05-26T16:27:19.287Z,23.80
2019-05-26T16:29:41.244Z,23.39
2019-05-26T16:32:08.682Z,24.79
2019-05-26T16:34:36.121Z,23.11
2019-05-26T16:37:04.099Z,23.18
2019-05-26T16:39:36.832Z,23.87
2019-05-26T16:42:01.144Z,23.24
2019-05-26T16:44:28.525Z,24.08
2019-05-26T16:46:57.084Z,23.85
2019-05-26T16:49:30.199Z,23.62
2019-05-26T16:51:57.563Z,23.86
2019-05-26T16:54:24.921Z,23.20
2019-05-26T16:56:53.911Z,23.67
2019-05-26T16:59:23.178Z,23.33
2019-05-26T17:01:50.608Z,24.61
2019-05-26T17:04:19.340Z,23.25
2019-05-26T17:06:47.838Z,23.51
2019-05-26T17:09:15.706Z,23.28
2019-05-26T17:11:43.137Z,23.22
2019-05-26T17:14:11.504Z,23.20
2019-05-26T17:16:40.468Z,23.24
2019-05-26T17:19:08.407Z,23.46
2019-05-26T17:21:35.832Z,23.66
2019-05-26T17:24:03.852Z,22.58
2019-05-26T17:26:31.260Z,23.05
2019-05-26T17:28:58.755Z,22.37
2019-05-26T17:31:26.586Z,20.90
2019-05-26T17:33:54.545Z,21.29
2019-05-26T17:36:23.195Z,21.15
2019-05-26T17:38:50.673Z,20.53
2019-05-26T17:41:18.288Z,20.24
2019-05-26T17:43:45.754Z,20.52
2019-05-26T17:46:15.305Z,20.18
2019-05-26T17:48:44.167Z,20.07
2019-05-26T17:51:11.689Z,20.11
2019-05-26T17:53:39.548Z,19.90
2019-05-26T17:56:06.962Z,20.10
2019-05-26T17:58:34.991Z,19.66
2019-05-26T18:01:02.680Z,19.84
2019-05-26T18:03:30.194Z,20.33
2019-05-26T18:05:57.824Z,20.09
2019-05-26T18:08:36.129Z,19.68
2019-05-26T18:11:02.144Z,19.47
2019-05-26T18:13:35.668Z,20.01
2019-05-26T18:16:04.476Z,19.67
2019-05-26T18:18:32.174Z,19.76
2019-05-26T18:21:00.363Z,19.48
2019-05-26T18:23:27.843Z,19.63
2019-05-26T18:25:55.463Z,19.43
2019-05-26T18:28:25.448Z,19.36
2019-05-26T18:30:53.683Z,19.73
2019-05-26T18:33:22.010Z,19.51
2019-05-26T18:35:56.778Z,19.01
2019-05-26T18:38:42.783Z,18.93
2019-05-26T18:41:10.830Z,18.71
2019-05-26T18:43:41.045Z,18.91
2019-05-26T18:46:12.252Z,18.27
2019-05-26T18:48:42.605Z,18.65
2019-05-26T18:51:12.312Z,18.43
2019-05-26T18:53:39.822Z,18.58
2019-05-26T18:56:18.113Z,18.34
2019-05-26T18:58:45.744Z,18.47
2019-05-26T19:01:14.381Z,17.68
2019-05-26T19:03:46.586Z,17.46
2019-05-26T19:06:31.580Z,17.48
2019-05-26T19:09:00.136Z,17.30
2019-05-26T19:11:28.613Z,17.86
2019-05-26T19:13:58.843Z,17.46
2019-05-26T19:16:35.541Z,17.60
2019-05-26T19:19:03.611Z,17.15
2019-05-26T19:21:31.733Z,17.32
2019-05-26T19:23:59.407Z,17.43
2019-05-26T19:26:30.987Z,17.04
2019-05-26T19:28:59.083Z,16.93
2019-05-26T19:31:26.626Z,17.46
2019-05-26T19:33:55.688Z,17.34
2019-05-26T19:36:26.427Z,17.61
2019-05-26T19:41:42.385Z,16.94
2019-05-26T19:44:09.963Z,16.90
2019-05-26T19:46:38.736Z,16.69
2019-05-26T19:49:06.704Z,16.54
2019-05-26T19:51:34.780Z,16.91
2019-05-26T19:54:06.822Z,16.50
2019-05-26T19:56:34.316Z,16.82
2019-05-26T19:59:03.245Z,16.43
2019-05-26T20:01:30.712Z,16.56
2019-05-26T20:04:07.840Z,15.87
2019-05-26T20:06:35.747Z,16.60
2019-05-26T20:09:10.530Z,16.25
2019-05-26T20:11:40.600Z,16.20
2019-05-26T20:14:08.512Z,16.33
2019-05-26T20:16:46.118Z,16.37
2019-05-26T20:19:13.626Z,16.15
2019-05-26T20:21:41.524Z,16.27
2019-05-26T20:26:56.088Z,16.91
2019-05-26T20:29:24.719Z,16.18
2019-05-26T20:31:52.147Z,16.10
2019-05-26T20:34:19.541Z,16.03
2019-05-26T20:36:46.909Z,16.06
2019-05-26T20:39:23.713Z,16.13
2019-05-26T20:41:51.134Z,16.18
2019-05-26T20:44:20.869Z,15.95
2019-05-26T20:46:48.582Z,16.03
2019-05-26T20:49:18.155Z,15.77
2019-05-26T20:51:46.405Z,15.76
2019-05-26T20:54:13.792Z,15.76
2019-05-26T20:56:41.270Z,15.66
2019-05-26T20:59:08.598Z,15.79
2019-05-26T21:01:36.373Z,15.75
2019-05-26T21:04:03.874Z,15.57
2019-05-26T21:06:31.590Z,15.66
2019-05-26T21:08:58.961Z,15.71
2019-05-26T21:11:26.308Z,15.54
2019-05-26T21:13:53.630Z,15.72
2019-05-26T21:16:20.979Z,15.18
2019-05-26T21:18:48.312Z,15.21
2019-05-26T21:21:15.670Z,15.08
2019-05-26T21:23:42.997Z,15.25
2019-05-26T21:26:10.332Z,15.12
2019-05-26T21:28:37.679Z,15.03
2019-05-26T21:31:05.010Z,14.80
2019-05-26T21:33:32.350Z,15.39
2019-05-26T21:35:59.694Z,14.71
2019-05-26T21:38:27.033Z,14.80
2019-05-26T21:40:54.533Z,14.76
2019-05-26T21:43:21.970Z,15.00
2019-05-26T21:45:49.290Z,14.80
2019-05-26T21:48:16.619Z,14.43
2019-05-26T21:50:44.008Z,14.91
2019-05-26T21:53:11.274Z,14.49
2019-05-26T21:55:38.615Z,14.57
2019-05-26T21:58:05.951Z,14.49
2019-05-26T22:00:40.970Z,14.61
2019-05-26T22:03:08.349Z,14.47
2019-05-26T22:05:35.679Z,14.36
2019-05-26T22:08:03.059Z,14.41
2019-05-26T22:10:30.376Z,14.22
2019-05-26T22:12:57.778Z,14.49
2019-05-26T22:15:25.110Z,14.31
2019-05-26T22:17:52.452Z,14.26
2019-05-26T22:20:19.876Z,14.44
2019-05-26T22:22:47.199Z,14.03
2019-05-26T22:25:14.510Z,13.95
2019-05-26T22:27:41.839Z,14.38
2019-05-26T22:30:10.577Z,14.11
2019-05-26T22:32:37.911Z,13.92
2019-05-26T22:35:05.905Z,14.59
2019-05-26T22:37:33.211Z,14.13
2019-05-26T22:40:00.484Z,14.09
2019-05-26T22:42:27.830Z,14.77
2019-05-26T22:44:55.169Z,14.20
2019-05-26T22:47:22.510Z,13.73
2019-05-26T22:49:49.842Z,14.06
2019-05-26T22:52:17.932Z,14.14
2019-05-26T22:54:45.372Z,14.47
2019-05-26T22:57:12.682Z,14.36
2019-05-26T22:59:39.998Z,13.48
2019-05-26T23:02:07.309Z,13.70
2019-05-26T23:04:34.603Z,13.39
2019-05-26T23:07:01.959Z,13.98
2019-05-26T23:09:29.357Z,13.49
2019-05-26T23:11:56.689Z,13.56
2019-05-26T23:14:24.013Z,13.76
2019-05-26T23:16:51.279Z,13.96
2019-05-26T23:19:20.037Z,13.34
2019-05-26T23:21:47.651Z,13.69
2019-05-26T23:24:14.993Z,13.57
2019-05-26T23:26:42.331Z,13.33
2019-05-26T23:29:09.652Z,13.53
2019-05-26T23:31:36.954Z,13.52
2019-05-26T23:34:04.270Z,13.28
2019-05-26T23:36:31.589Z,13.42
2019-05-26T23:38:58.925Z,13.35
2019-05-26T23:41:26.213Z,13.15
2019-05-26T23:43:53.515Z,13.27
2019-05-26T23:46:20.809Z,13.35
2019-05-26T23:48:48.139Z,13.04
2019-05-26T23:51:15.479Z,13.18
2019-05-26T23:53:42.769Z,12.89
2019-05-26T23:56:10.148Z,13.31
2019-05-26T23:58:37.445Z,13.09
